Time;durP1;ratioP1;P1;durP2;ratioP2;P2;SDS_P1;SDS_P2;PMS_P1;PMS_P2;Temp;Humidity;BMP_temperature;BMP_pressure;BME280_temperature;BME280_humidity;BME280_pressure;Samples;Min_cycle;Max_cycle;Signal;HPM_P1;HPM_P2
2021/11/05 00:00:52;;;;;;;0.30;0.20;;;5.70;99.90;;;;;;4997016;28;20440;-89
2021/11/05 00:03:21;;;;;;;0.30;0.30;;;5.70;99.90;;;;;;4996834;28;20472;-89
2021/11/05 00:05:47;;;;;;;0.30;0.20;;;5.70;99.90;;;;;;4996549;28;20457;-89
2021/11/05 00:08:14;;;;;;;0.30;0.30;;;5.70;99.90;;;;;;4998028;28;20452;-89
2021/11/05 00:10:43;;;;;;;0.30;0.30;;;5.70;99.90;;;;;;4996583;28;20491;-89
2021/11/05 00:13:11;;;;;;;0.40;0.40;;;5.70;99.90;;;;;;4996161;28;20461;-89
2021/11/05 00:15:38;;;;;;;0.30;0.30;;;5.70;99.90;;;;;;4996338;28;20444;-89
2021/11/05 00:18:05;;;;;;;0.40;0.40;;;5.70;99.90;;;;;;4996403;28;20840;-88
2021/11/05 00:20:34;;;;;;;0.30;0.30;;;5.70;99.90;;;;;;4996368;28;20456;-89
2021/11/05 00:23:01;;;;;;;0.30;0.30;;;5.60;99.90;;;;;;4996167;28;20472;-89
2021/11/05 00:25:28;;;;;;;0.30;0.30;;;5.60;99.90;;;;;;4996009;28;20437;-89
2021/11/05 00:27:55;;;;;;;0.30;0.20;;;5.60;99.90;;;;;;4995973;28;20448;-89
2021/11/05 00:30:22;;;;;;;0.30;0.20;;;5.60;99.90;;;;;;4996114;28;20455;-89
2021/11/05 00:32:49;;;;;;;0.60;0.30;;;5.60;99.90;;;;;;4995968;28;20465;-89
2021/11/05 00:35:16;;;;;;;0.30;0.20;;;5.70;99.90;;;;;;4996383;28;20468;-89
2021/11/05 00:37:44;;;;;;;0.30;0.20;;;5.70;99.90;;;;;;4995670;28;21006;-89
2021/11/05 00:40:14;;;;;;;1.43;1.33;;;5.70;99.90;;;;;;4994919;28;20457;-90
2021/11/05 00:42:41;;;;;;;0.30;0.20;;;5.70;99.90;;;;;;4995944;28;20481;-89
2021/11/05 00:45:09;;;;;;;0.30;0.30;;;5.70;99.90;;;;;;4996211;28;20437;-89
2021/11/05 00:47:35;;;;;;;0.40;0.30;;;5.70;99.90;;;;;;4995753;28;20486;-88
2021/11/05 00:50:02;;;;;;;0.40;0.30;;;5.70;99.90;;;;;;4995488;28;20820;-89
2021/11/05 00:52:29;;;;;;;0.30;0.20;;;5.70;99.90;;;;;;4995256;28;20484;-89
2021/11/05 00:54:57;;;;;;;0.30;0.20;;;5.70;99.90;;;;;;4995765;28;20444;-88
2021/11/05 00:57:24;;;;;;;0.30;0.20;;;5.70;99.90;;;;;;4995774;28;20459;-89
2021/11/05 00:59:50;;;;;;;0.30;0.20;;;5.70;99.90;;;;;;4996748;28;20470;-89
2021/11/05 01:02:17;;;;;;;0.60;0.60;;;5.60;99.90;;;;;;4995548;28;20816;-89
2021/11/05 01:04:44;;;;;;;0.30;0.20;;;5.60;99.90;;;;;;4995334;28;20437;-89
2021/11/05 01:07:11;;;;;;;0.30;0.30;;;5.70;99.90;;;;;;4995371;28;20459;-89
2021/11/05 01:09:38;;;;;;;0.60;0.53;;;5.70;99.90;;;;;;4995400;28;20490;-89
2021/11/05 01:12:08;;;;;;;0.53;0.53;;;5.70;99.90;;;;;;4994821;28;21019;-88
2021/11/05 01:14:35;;;;;;;0.30;0.20;;;5.60;99.90;;;;;;4995209;28;20936;-89
2021/11/05 01:17:02;;;;;;;0.30;0.30;;;5.60;99.90;;;;;;4995278;28;20452;-88
2021/11/05 01:19:29;;;;;;;0.40;0.40;;;5.60;99.90;;;;;;4995078;28;20936;-89
2021/11/05 01:21:56;;;;;;;0.30;0.20;;;5.60;99.90;;;;;;4995185;28;20440;-89
2021/11/05 01:24:22;;;;;;;0.37;0.37;;;5.50;99.90;;;;;;4994875;28;20457;-89
2021/11/05 01:26:49;;;;;;;0.30;0.30;;;5.50;99.90;;;;;;4995013;28;20454;-88
2021/11/05 01:29:17;;;;;;;0.30;0.27;;;5.50;99.90;;;;;;4994652;28;20452;-89
2021/11/05 01:31:44;;;;;;;0.30;0.20;;;5.60;99.90;;;;;;4994627;28;20485;-88
2021/11/05 01:34:12;;;;;;;0.30;0.30;;;5.50;99.90;;;;;;4994864;28;20483;-89
2021/11/05 01:36:38;;;;;;;0.30;0.30;;;5.50;99.90;;;;;;4994395;28;20476;-88
2021/11/05 01:39:06;;;;;;;0.40;0.30;;;5.50;99.90;;;;;;4994595;28;20459;-89
2021/11/05 01:41:33;;;;;;;0.30;0.30;;;5.50;99.90;;;;;;4995240;28;20444;-89
2021/11/05 01:43:59;;;;;;;0.30;0.20;;;5.50;99.90;;;;;;4994857;28;20469;-88
2021/11/05 01:46:27;;;;;;;0.30;0.30;;;5.60;99.90;;;;;;4994772;28;20824;-88
2021/11/05 01:48:54;;;;;;;0.30;0.30;;;5.60;99.90;;;;;;4996181;28;20475;-89
2021/11/05 01:51:22;;;;;;;0.30;0.20;;;5.50;99.90;;;;;;5007657;28;20498;-89
2021/11/05 01:53:49;;;;;;;0.30;0.20;;;5.50;99.90;;;;;;5000571;28;20476;-90
2021/11/05 01:56:16;;;;;;;0.40;0.40;;;5.60;99.90;;;;;;4995546;28;20457;-89
2021/11/05 01:58:43;;;;;;;0.30;0.30;;;5.60;99.90;;;;;;4994741;28;20463;-89
2021/11/05 02:01:10;;;;;;;0.40;0.30;;;5.60;99.90;;;;;;4994863;28;20441;-88
2021/11/05 02:03:38;;;;;;;0.30;0.30;;;5.50;99.90;;;;;;4994605;28;20456;-88
2021/11/05 02:06:05;;;;;;;0.60;0.30;;;5.50;99.90;;;;;;4994660;28;20449;-88
2021/11/05 02:08:35;;;;;;;0.30;0.30;;;5.50;99.90;;;;;;4995400;28;20456;-88
2021/11/05 02:11:05;;;;;;;0.30;0.20;;;5.50;99.90;;;;;;4995632;28;20526;-88
2021/11/05 02:13:34;;;;;;;0.37;0.33;;;5.50;99.90;;;;;;4994472;28;20480;-89
2021/11/05 02:16:01;;;;;;;0.30;0.20;;;5.50;99.90;;;;;;4994661;28;20495;-89
2021/11/05 02:18:29;;;;;;;0.30;0.20;;;5.40;99.90;;;;;;4995023;28;20437;-89
2021/11/05 02:20:59;;;;;;;0.30;0.30;;;5.30;99.90;;;;;;4994347;28;20932;-88
2021/11/05 02:23:27;;;;;;;0.30;0.20;;;5.30;99.90;;;;;;4994718;28;20481;-88
2021/11/05 02:25:54;;;;;;;0.37;0.30;;;5.40;99.90;;;;;;4995003;28;20456;-88
2021/11/05 02:28:21;;;;;;;0.30;0.30;;;5.30;99.90;;;;;;4994194;28;20433;-88
2021/11/05 02:30:50;;;;;;;0.30;0.20;;;5.30;99.90;;;;;;4995007;28;20576;-88
2021/11/05 02:33:17;;;;;;;0.30;0.20;;;5.30;99.90;;;;;;4994299;28;20465;-88
2021/11/05 02:35:44;;;;;;;0.40;0.30;;;5.40;99.90;;;;;;4993932;28;20912;-88
2021/11/05 02:38:10;;;;;;;0.30;0.20;;;5.30;99.90;;;;;;4994929;28;20441;-88
2021/11/05 02:40:38;;;;;;;0.30;0.20;;;5.30;99.90;;;;;;4994084;28;20457;-88
2021/11/05 02:43:05;;;;;;;0.30;0.20;;;5.40;99.90;;;;;;4994207;28;20480;-88
2021/11/05 02:45:32;;;;;;;0.30;0.20;;;5.40;99.90;;;;;;4994216;28;20452;-88
2021/11/05 02:47:59;;;;;;;0.30;0.20;;;5.30;99.90;;;;;;4994183;28;20468;-88
2021/11/05 02:50:26;;;;;;;0.30;0.30;;;5.30;99.90;;;;;;4994258;28;20929;-88
2021/11/05 02:52:52;;;;;;;0.30;0.20;;;5.30;99.90;;;;;;4994034;28;20499;-88
2021/11/05 02:55:21;;;;;;;0.30;0.30;;;5.40;99.90;;;;;;4994243;28;20455;-89
2021/11/05 02:57:49;;;;;;;0.40;0.40;;;5.30;99.90;;;;;;4994207;28;20540;-89
2021/11/05 03:00:17;;;;;;;0.30;0.30;;;5.40;99.90;;;;;;4993929;28;20432;-89
2021/11/05 03:02:44;;;;;;;0.60;0.60;;;5.40;99.90;;;;;;4995331;28;20483;-89
2021/11/05 03:05:11;;;;;;;0.30;0.30;;;5.30;99.90;;;;;;4997737;28;20817;-89
2021/11/05 03:07:38;;;;;;;0.30;0.30;;;5.40;99.90;;;;;;4998112;28;20460;-89
2021/11/05 03:10:06;;;;;;;0.30;0.20;;;5.40;99.90;;;;;;4997362;28;20448;-89
2021/11/05 03:12:33;;;;;;;0.30;0.30;;;5.40;99.90;;;;;;4997132;28;20507;-89
2021/11/05 03:15:02;;;;;;;0.40;0.40;;;5.40;99.90;;;;;;4997548;28;20477;-89
2021/11/05 03:17:29;;;;;;;0.30;0.30;;;5.40;99.90;;;;;;4997376;28;20441;-89
2021/11/05 03:19:56;;;;;;;0.30;0.30;;;5.50;99.90;;;;;;4997347;28;20457;-89
2021/11/05 03:22:23;;;;;;;0.30;0.27;;;5.50;99.90;;;;;;4997326;28;20463;-89
2021/11/05 03:24:50;;;;;;;0.30;0.30;;;5.50;99.90;;;;;;4997339;28;20516;-89
2021/11/05 03:27:17;;;;;;;0.50;0.40;;;5.50;99.90;;;;;;4996989;28;20440;-88
2021/11/05 03:29:43;;;;;;;0.30;0.20;;;5.50;99.90;;;;;;4997464;28;20452;-88
2021/11/05 03:32:12;;;;;;;0.30;0.20;;;5.40;99.90;;;;;;4996807;28;20483;-89
2021/11/05 03:34:39;;;;;;;0.30;0.20;;;5.40;99.90;;;;;;4996906;28;20453;-88
2021/11/05 03:37:06;;;;;;;0.30;0.20;;;5.40;99.90;;;;;;4996917;28;20491;-89
2021/11/05 03:39:34;;;;;;;0.30;0.20;;;5.40;99.90;;;;;;4997266;28;20459;-89
2021/11/05 03:42:01;;;;;;;0.30;0.20;;;5.40;99.90;;;;;;4997156;28;20484;-89
2021/11/05 03:44:28;;;;;;;0.40;0.30;;;5.40;99.90;;;;;;4997078;28;20491;-89
2021/11/05 03:46:55;;;;;;;0.40;0.30;;;5.40;99.90;;;;;;4997916;28;20815;-88
2021/11/05 03:49:23;;;;;;;0.30;0.30;;;5.40;99.90;;;;;;5004864;28;20453;-88
2021/11/05 03:51:50;;;;;;;0.30;0.20;;;5.40;99.90;;;;;;5000455;28;21018;-89
2021/11/05 03:54:17;;;;;;;0.30;0.20;;;5.40;99.90;;;;;;4996904;28;20483;-89
2021/11/05 03:56:44;;;;;;;0.60;0.37;;;5.40;99.90;;;;;;4996596;28;20447;-89
2021/11/05 03:59:11;;;;;;;0.30;0.20;;;5.40;99.90;;;;;;4996765;28;20437;-89
2021/11/05 04:01:38;;;;;;;0.30;0.30;;;5.40;99.90;;;;;;4996727;28;20456;-89
2021/11/05 04:04:04;;;;;;;0.30;0.20;;;5.50;99.90;;;;;;4996628;28;20473;-89
2021/11/05 04:06:33;;;;;;;0.40;0.33;;;5.50;99.90;;;;;;4996659;28;20460;-88
2021/11/05 04:09:00;;;;;;;0.30;0.20;;;5.50;99.90;;;;;;4996544;28;20515;-88
2021/11/05 04:11:27;;;;;;;0.30;0.20;;;5.50;99.90;;;;;;4996379;28;20452;-89
2021/11/05 04:13:54;;;;;;;0.30;0.30;;;5.50;99.90;;;;;;4996217;28;20473;-89
2021/11/05 04:16:21;;;;;;;0.30;0.30;;;5.50;99.90;;;;;;4996248;28;20504;-88
2021/11/05 04:18:48;;;;;;;0.30;0.30;;;5.50;99.90;;;;;;4996334;28;20962;-89
2021/11/05 04:21:14;;;;;;;0.30;0.30;;;5.60;99.90;;;;;;4996144;28;20436;-89
2021/11/05 04:23:43;;;;;;;0.30;0.30;;;5.60;99.90;;;;;;4996383;28;20999;-89
2021/11/05 04:26:10;;;;;;;0.30;0.30;;;5.60;99.90;;;;;;4996305;28;20473;-89
2021/11/05 04:28:37;;;;;;;0.30;0.27;;;5.60;99.90;;;;;;4995887;28;20440;-89
2021/11/05 04:31:04;;;;;;;0.30;0.20;;;5.70;99.90;;;;;;4996096;28;20456;-89
2021/11/05 04:33:31;;;;;;;0.30;0.23;;;5.60;99.90;;;;;;4996191;28;20879;-89
2021/11/05 04:35:58;;;;;;;0.30;0.30;;;5.70;99.90;;;;;;4996229;28;20568;-90
2021/11/05 04:38:25;;;;;;;0.40;0.30;;;5.60;99.90;;;;;;4995877;28;20468;-87
2021/11/05 04:40:54;;;;;;;0.30;0.20;;;5.70;99.90;;;;;;4996030;28;20460;-88
2021/11/05 04:43:20;;;;;;;0.30;0.30;;;5.60;99.90;;;;;;4995568;28;20984;-87
2021/11/05 04:45:47;;;;;;;0.30;0.30;;;5.50;99.90;;;;;;4995260;28;20441;-87
2021/11/05 04:48:14;;;;;;;0.30;0.30;;;5.50;99.90;;;;;;4995534;28;20452;-86
2021/11/05 04:50:41;;;;;;;0.80;0.50;;;5.50;99.90;;;;;;4995151;28;20437;-87
2021/11/05 04:53:08;;;;;;;0.43;0.43;;;5.50;99.90;;;;;;4995543;28;20495;-87
2021/11/05 04:55:35;;;;;;;0.30;0.30;;;5.50;99.90;;;;;;4995084;28;20440;-87
2021/11/05 04:58:03;;;;;;;0.30;0.20;;;5.50;99.90;;;;;;4995012;28;20433;-87
2021/11/05 05:00:31;;;;;;;0.30;0.30;;;5.50;99.90;;;;;;4995192;28;20452;-87
2021/11/05 05:02:58;;;;;;;0.40;0.40;;;5.50;99.90;;;;;;4994758;28;20471;-86
2021/11/05 05:05:27;;;;;;;0.30;0.20;;;5.50;99.90;;;;;;4994733;28;20452;-86
2021/11/05 05:07:54;;;;;;;0.30;0.30;;;5.40;99.90;;;;;;4995450;28;20540;-86
2021/11/05 05:10:21;;;;;;;0.30;0.30;;;5.40;99.90;;;;;;4997604;28;20528;-86
2021/11/05 05:12:48;;;;;;;0.30;0.20;;;5.40;99.90;;;;;;4994595;28;20496;-86
2021/11/05 05:15:16;;;;;;;0.30;0.20;;;5.40;99.90;;;;;;4994436;28;20448;-86
2021/11/05 05:17:44;;;;;;;0.43;0.30;;;5.40;99.90;;;;;;4994710;28;20475;-86
2021/11/05 05:20:14;;;;;;;0.30;0.30;;;5.40;99.90;;;;;;4994658;28;20464;-86
2021/11/05 05:22:41;;;;;;;0.30;0.20;;;5.30;99.90;;;;;;4994477;28;20484;-86
2021/11/05 05:25:10;;;;;;;0.30;0.30;;;5.30;99.90;;;;;;4994074;28;20456;-86
2021/11/05 05:27:37;;;;;;;0.30;0.20;;;5.30;99.90;;;;;;4994363;28;20437;-86
2021/11/05 05:30:07;;;;;;;0.30;0.30;;;5.30;99.90;;;;;;4994433;28;20464;-86
2021/11/05 05:32:36;;;;;;;0.50;0.50;;;5.30;99.90;;;;;;4994180;28;20514;-86
2021/11/05 05:35:03;;;;;;;0.30;0.30;;;5.30;99.90;;;;;;4994087;28;20464;-86
2021/11/05 05:37:30;;;;;;;0.87;0.50;;;5.40;99.90;;;;;;4993975;28;20487;-85
2021/11/05 05:39:57;;;;;;;0.30;0.20;;;5.30;99.90;;;;;;4994181;28;20457;-85
2021/11/05 05:42:24;;;;;;;0.30;0.30;;;5.40;99.90;;;;;;4994008;28;20465;-85
2021/11/05 05:44:50;;;;;;;0.40;0.30;;;5.40;99.90;;;;;;4994116;28;20449;-86
2021/11/05 05:47:17;;;;;;;0.60;0.27;;;5.40;99.90;;;;;;4993874;28;20463;-85
2021/11/05 05:49:48;;;;;;;1.47;1.47;;;5.40;99.90;;;;;;4994098;28;20452;-85
2021/11/05 05:52:15;;;;;;;0.30;0.30;;;5.40;99.90;;;;;;4993991;28;20472;-85
2021/11/05 05:54:42;;;;;;;0.30;0.30;;;5.40;99.90;;;;;;4994109;28;20453;-85
2021/11/05 05:57:09;;;;;;;0.40;0.40;;;5.40;99.90;;;;;;4994025;28;20455;-86
2021/11/05 05:59:36;;;;;;;0.30;0.20;;;5.40;99.90;;;;;;4994010;28;20480;-85
2021/11/05 06:02:03;;;;;;;0.40;0.33;;;5.40;99.90;;;;;;4993826;28;20452;-86
2021/11/05 06:04:30;;;;;;;0.30;0.30;;;5.40;99.90;;;;;;4993952;28;20464;-86
2021/11/05 06:06:58;;;;;;;0.50;0.40;;;5.40;99.90;;;;;;4994075;28;20816;-86
2021/11/05 06:09:24;;;;;;;0.30;0.20;;;5.40;99.90;;;;;;4993694;28;20433;-86
2021/11/05 06:11:51;;;;;;;0.30;0.30;;;5.40;99.90;;;;;;4993975;28;20452;-86
2021/11/05 06:14:18;;;;;;;0.30;0.30;;;5.50;99.90;;;;;;4993560;28;20487;-86
2021/11/05 06:16:45;;;;;;;0.30;0.20;;;5.50;99.90;;;;;;4994022;28;20452;-86
2021/11/05 06:19:12;;;;;;;0.30;0.30;;;5.40;99.90;;;;;;4994146;28;20961;-86
2021/11/05 06:21:39;;;;;;;0.40;0.30;;;5.40;99.90;;;;;;4996248;28;20455;-85
2021/11/05 06:24:07;;;;;;;0.30;0.30;;;5.40;99.90;;;;;;4995293;28;20460;-86
2021/11/05 06:26:34;;;;;;;0.40;0.40;;;5.50;99.90;;;;;;4994445;28;20971;-86
2021/11/05 06:29:02;;;;;;;0.30;0.30;;;5.50;99.90;;;;;;4993924;28;20507;-86
2021/11/05 06:31:30;;;;;;;0.30;0.30;;;5.50;99.90;;;;;;4993966;28;20543;-86
2021/11/05 06:33:57;;;;;;;0.40;0.40;;;5.50;99.90;;;;;;4993522;28;21000;-87
2021/11/05 06:36:24;;;;;;;0.30;0.30;;;5.50;99.90;;;;;;4994607;28;20491;-87
2021/11/05 06:38:51;;;;;;;0.30;0.30;;;5.40;99.90;;;;;;4997813;28;20443;-87
2021/11/05 06:41:20;;;;;;;0.37;0.37;;;5.40;99.90;;;;;;4997718;28;20453;-88
2021/11/05 06:43:48;;;;;;;0.40;0.30;;;5.40;99.90;;;;;;4997628;28;20468;-87
2021/11/05 06:46:15;;;;;;;0.30;0.20;;;5.50;99.90;;;;;;4997649;28;20456;-88
2021/11/05 06:48:41;;;;;;;0.63;0.30;;;5.50;99.90;;;;;;4997677;28;20448;-87
2021/11/05 06:51:08;;;;;;;0.30;0.30;;;5.50;99.90;;;;;;4997735;28;20507;-88
2021/11/05 06:53:35;;;;;;;0.30;0.20;;;5.60;99.90;;;;;;4997647;28;20484;-88
2021/11/05 06:56:02;;;;;;;0.30;0.30;;;5.60;99.90;;;;;;4997499;28;20444;-88
2021/11/05 06:58:35;;;;;;;0.30;0.20;;;5.60;99.90;;;;;;4997563;28;20473;-87
2021/11/05 07:01:02;;;;;;;0.30;0.20;;;5.60;99.90;;;;;;4998141;28;20433;-88
2021/11/05 07:03:29;;;;;;;0.30;0.30;;;5.60;99.90;;;;;;4997614;28;20468;-87
2021/11/05 07:05:56;;;;;;;0.30;0.30;;;5.70;99.90;;;;;;4997496;28;20463;-87
2021/11/05 07:08:23;;;;;;;0.30;0.20;;;5.70;99.90;;;;;;4997199;28;20462;-88
2021/11/05 07:10:50;;;;;;;0.30;0.20;;;5.60;99.90;;;;;;4997319;28;20452;-88
2021/11/05 07:13:16;;;;;;;0.30;0.30;;;5.70;99.90;;;;;;4996999;28;20488;-88
2021/11/05 07:15:45;;;;;;;0.30;0.30;;;5.70;99.90;;;;;;4997033;28;20455;-88
2021/11/05 07:18:12;;;;;;;0.30;0.30;;;5.80;99.90;;;;;;4997032;28;20933;-88
2021/11/05 07:20:39;;;;;;;2.83;1.17;;;5.80;99.90;;;;;;4997070;28;20460;-88
2021/11/05 07:23:07;;;;;;;0.30;0.20;;;5.90;99.90;;;;;;4997246;28;20468;-88
2021/11/05 07:25:34;;;;;;;0.30;0.20;;;5.90;99.90;;;;;;4997307;28;20457;-88
2021/11/05 07:28:01;;;;;;;0.30;0.30;;;5.90;99.90;;;;;;4997364;28;20455;-88
2021/11/05 07:30:27;;;;;;;0.30;0.30;;;5.90;99.90;;;;;;4997308;28;20801;-88
2021/11/05 07:32:55;;;;;;;0.30;0.30;;;5.90;99.90;;;;;;4997005;28;20491;-88
2021/11/05 07:35:23;;;;;;;0.30;0.20;;;6.00;99.90;;;;;;4997075;28;20956;-89
2021/11/05 07:37:51;;;;;;;0.40;0.37;;;6.00;99.90;;;;;;4996634;28;20488;-88
2021/11/05 07:40:19;;;;;;;0.30;0.30;;;6.10;99.90;;;;;;4997653;28;20492;-88
2021/11/05 07:42:46;;;;;;;0.30;0.20;;;6.10;99.90;;;;;;4996982;28;20465;-88
2021/11/05 07:45:32;;;;;;;0.30;0.20;;;6.10;99.90;;;;;;4996835;28;20449;-88
2021/11/05 07:48:00;;;;;;;0.30;0.30;;;6.10;99.90;;;;;;4996317;28;20445;-88
2021/11/05 07:50:33;;;;;;;0.30;0.30;;;6.20;99.90;;;;;;4996813;28;20822;-88
2021/11/05 07:53:00;;;;;;;0.30;0.30;;;6.20;99.90;;;;;;4996403;28;20524;-88
2021/11/05 07:55:26;;;;;;;0.30;0.20;;;6.30;99.90;;;;;;4996376;28;20443;-88
2021/11/05 07:57:53;;;;;;;1.07;0.47;;;6.30;99.90;;;;;;4996618;28;20437;-88
2021/11/05 08:00:20;;;;;;;0.30;0.30;;;6.40;99.90;;;;;;4996857;28;20449;-88
2021/11/05 08:02:47;;;;;;;0.30;0.20;;;6.30;99.90;;;;;;4996342;28;20488;-88
2021/11/05 08:05:15;;;;;;;0.30;0.20;;;6.20;99.90;;;;;;4996522;28;20528;-88
2021/11/05 08:07:42;;;;;;;0.30;0.30;;;6.30;99.90;;;;;;4996488;28;20463;-88
2021/11/05 08:10:10;;;;;;;3.80;1.17;;;6.40;99.90;;;;;;4996288;28;20455;-86
2021/11/05 08:12:37;;;;;;;0.97;0.97;;;6.50;99.90;;;;;;4995670;28;20534;-85
2021/11/05 08:15:05;;;;;;;0.60;0.60;;;6.50;99.90;;;;;;4996639;28;20433;-85
2021/11/05 08:17:31;;;;;;;1.67;1.10;;;6.60;99.90;;;;;;4998725;28;20436;-85
2021/11/05 08:19:58;;;;;;;0.33;0.33;;;6.70;99.90;;;;;;4995868;28;20778;-85
2021/11/05 08:22:26;;;;;;;0.60;0.60;;;6.70;99.90;;;;;;4995189;28;20921;-85
2021/11/05 08:24:53;;;;;;;2.83;0.43;;;6.80;99.90;;;;;;4995732;28;20417;-85
2021/11/05 08:27:20;;;;;;;0.83;0.73;;;6.90;99.90;;;;;;4995448;28;20448;-85
2021/11/05 08:29:47;;;;;;;1.90;1.30;;;6.90;99.90;;;;;;4995607;28;20437;-85
2021/11/05 08:32:15;;;;;;;1.13;0.70;;;6.90;99.90;;;;;;4995335;28;20441;-85
2021/11/05 08:34:42;;;;;;;0.30;0.30;;;6.90;99.90;;;;;;4995225;28;20480;-85
2021/11/05 08:37:09;;;;;;;0.80;0.80;;;6.90;99.90;;;;;;4994679;28;20491;-85
2021/11/05 08:39:37;;;;;;;1.23;0.83;;;7.00;99.90;;;;;;4994853;28;20448;-84
2021/11/05 08:42:04;;;;;;;1.23;1.23;;;7.00;99.90;;;;;;4994981;28;20451;-85
2021/11/05 08:44:32;;;;;;;0.30;0.30;;;7.10;99.90;;;;;;4995109;28;20464;-85
2021/11/05 08:46:59;;;;;;;0.47;0.47;;;7.20;99.90;;;;;;4995365;28;20448;-86
2021/11/05 08:49:27;;;;;;;2.63;1.27;;;7.30;99.90;;;;;;4995839;28;20452;-87
2021/11/05 08:51:54;;;;;;;1.17;0.80;;;7.40;99.90;;;;;;4995654;28;20887;-89
2021/11/05 08:54:21;;;;;;;0.30;0.30;;;7.50;99.90;;;;;;4995708;28;21070;-89
2021/11/05 08:56:49;;;;;;;0.37;0.30;;;7.60;99.90;;;;;;4995511;28;20447;-89
2021/11/05 08:59:19;;;;;;;0.30;0.30;;;7.60;99.90;;;;;;4995194;28;20437;-89
2021/11/05 09:01:47;;;;;;;0.40;0.30;;;7.50;99.90;;;;;;4994939;28;20452;-89
2021/11/05 09:04:14;;;;;;;0.30;0.20;;;7.50;99.90;;;;;;4995356;28;20469;-90
2021/11/05 09:06:42;;;;;;;0.30;0.30;;;7.50;99.90;;;;;;4995201;28;20445;-88
2021/11/05 09:09:09;;;;;;;0.30;0.30;;;7.50;99.90;;;;;;4995370;28;20433;-88
2021/11/05 09:11:36;;;;;;;1.83;0.30;;;7.50;99.90;;;;;;4995074;28;20471;-88
2021/11/05 09:14:04;;;;;;;0.63;0.63;;;7.50;99.90;;;;;;4995217;28;20491;-88
2021/11/05 09:16:31;;;;;;;1.33;1.03;;;7.60;99.90;;;;;;4995261;28;20461;-88
2021/11/05 09:19:01;;;;;;;0.30;0.30;;;7.60;99.90;;;;;;4995266;28;20452;-88
2021/11/05 09:21:29;;;;;;;0.30;0.20;;;7.80;99.90;;;;;;4995109;28;20448;-90
2021/11/05 09:23:55;;;;;;;0.30;0.30;;;7.90;99.90;;;;;;4995066;28;20500;-94
2021/11/05 09:26:24;;;;;;;0.50;0.50;;;8.00;99.90;;;;;;4995412;28;20822;-88
2021/11/05 09:28:50;;;;;;;1.53;1.43;;;8.20;99.90;;;;;;4995206;28;21027;-88
2021/11/05 09:31:19;;;;;;;0.40;0.30;;;8.50;99.90;;;;;;4995227;28;20459;-88
2021/11/05 09:33:45;;;;;;;0.70;0.70;;;8.70;99.90;;;;;;4994941;28;20496;-88
2021/11/05 09:36:12;;;;;;;0.60;0.40;;;8.80;99.90;;;;;;4994582;28;20488;-88
2021/11/05 09:38:39;;;;;;;0.37;0.30;;;8.90;99.90;;;;;;4994743;28;20437;-88
2021/11/05 09:41:07;;;;;;;0.40;0.30;;;9.00;99.90;;;;;;4994474;28;20443;-87
2021/11/05 09:43:34;;;;;;;0.30;0.20;;;9.10;99.90;;;;;;4994195;28;20475;-87
2021/11/05 09:46:01;;;;;;;0.40;0.30;;;9.40;99.90;;;;;;4994428;28;20480;-87
2021/11/05 09:48:29;;;;;;;0.30;0.20;;;9.90;99.90;;;;;;4994587;28;20452;-87
2021/11/05 09:50:57;;;;;;;0.40;0.30;;;10.30;99.90;;;;;;4994436;28;20451;-87
2021/11/05 09:53:25;;;;;;;0.57;0.57;;;10.40;99.90;;;;;;4993972;28;20468;-86
2021/11/05 09:55:52;;;;;;;0.30;0.30;;;10.20;99.90;;;;;;4994205;28;20433;-86
2021/11/05 09:58:19;;;;;;;0.40;0.30;;;10.10;99.90;;;;;;4994208;28;20464;-86
2021/11/05 10:00:46;;;;;;;1.27;0.30;;;10.10;99.90;;;;;;4994094;28;20452;-86
2021/11/05 10:03:13;;;;;;;0.30;0.20;;;10.10;99.90;;;;;;4994125;28;20563;-86
2021/11/05 10:05:41;;;;;;;0.40;0.40;;;10.20;99.90;;;;;;4994030;28;20452;-86
2021/11/05 10:08:08;;;;;;;0.30;0.20;;;10.30;99.90;;;;;;4994443;28;20444;-85
2021/11/05 10:10:36;;;;;;;0.43;0.30;;;10.20;99.90;;;;;;4994325;28;20436;-86
2021/11/05 10:13:06;;;;;;;4.90;0.60;;;10.10;99.90;;;;;;5006644;28;20506;-86
2021/11/05 10:15:38;;;;;;;0.40;0.40;;;10.10;99.90;;;;;;5001466;28;20472;-85
2021/11/05 10:18:10;;;;;;;0.93;0.30;;;10.00;99.90;;;;;;4998156;28;20441;-85
2021/11/05 10:20:37;;;;;;;0.30;0.30;;;9.90;99.90;;;;;;4997868;28;20443;-85
2021/11/05 10:23:07;;;;;;;0.50;0.40;;;9.90;99.90;;;;;;4997865;28;20475;-85
2021/11/05 10:25:37;;;;;;;0.30;0.30;;;9.80;99.90;;;;;;4998051;28;20428;-85
2021/11/05 10:28:13;;;;;;;0.40;0.30;;;9.80;99.90;;;;;;4997613;28;20432;-85
2021/11/05 10:30:51;;;;;;;0.80;0.37;;;9.80;99.90;;;;;;4997767;28;20437;-87
2021/11/05 10:33:20;;;;;;;0.50;0.30;;;9.90;99.90;;;;;;4998091;28;20476;-86
2021/11/05 10:35:50;;;;;;;0.30;0.30;;;9.90;99.90;;;;;;4997219;28;20449;-86
2021/11/05 10:38:19;;;;;;;0.30;0.27;;;10.00;99.90;;;;;;4997516;28;20436;-86
2021/11/05 10:40:49;;;;;;;0.30;0.30;;;10.10;99.90;;;;;;4997597;28;20440;-86
2021/11/05 10:43:18;;;;;;;0.30;0.20;;;10.20;99.90;;;;;;4997361;28;20464;-86
2021/11/05 10:45:47;;;;;;;0.40;0.30;;;10.40;99.90;;;;;;4997432;28;20447;-86
2021/11/05 10:48:16;;;;;;;0.30;0.30;;;10.60;99.90;;;;;;4997471;28;20479;-87
2021/11/05 10:50:50;;;;;;;0.30;0.30;;;10.60;99.90;;;;;;4997365;28;20436;-87
2021/11/05 10:53:20;;;;;;;0.80;0.40;;;10.60;99.90;;;;;;4996898;28;21014;-87
2021/11/05 10:55:49;;;;;;;0.30;0.30;;;10.40;99.90;;;;;;4997274;28;20482;-86
2021/11/05 10:58:23;;;;;;;0.40;0.40;;;10.10;99.90;;;;;;4997259;28;20446;-86
2021/11/05 11:00:53;;;;;;;0.60;0.40;;;9.80;99.90;;;;;;4996777;28;20444;-86
2021/11/05 11:03:25;;;;;;;1.80;0.67;;;9.60;99.90;;;;;;4996779;28;21038;-86
2021/11/05 11:05:53;;;;;;;0.40;0.30;;;9.40;99.90;;;;;;4997215;28;20440;-86
2021/11/05 11:08:24;;;;;;;0.30;0.20;;;9.30;99.90;;;;;;4996956;28;20888;-86
2021/11/05 11:10:53;;;;;;;0.40;0.30;;;9.10;99.90;;;;;;4997068;28;20449;-85
2021/11/05 11:13:32;;;;;;;0.30;0.30;;;9.10;99.90;;;;;;4996721;28;20468;-85
2021/11/05 11:15:59;;;;;;;0.30;0.20;;;9.10;99.90;;;;;;4996515;28;20444;-85
2021/11/05 11:18:26;;;;;;;0.30;0.20;;;9.00;99.90;;;;;;4996927;28;20455;-86
2021/11/05 11:20:52;;;;;;;0.43;0.40;;;9.00;99.90;;;;;;4996617;28;20448;-85
2021/11/05 11:23:21;;;;;;;0.30;0.30;;;9.00;99.90;;;;;;4995536;28;20863;-85
2021/11/05 11:25:47;;;;;;;0.53;0.30;;;8.90;99.90;;;;;;4996542;28;20449;-85
2021/11/05 11:28:14;;;;;;;0.47;0.30;;;8.90;99.90;;;;;;4996507;28;20444;-85
2021/11/05 11:30:41;;;;;;;0.30;0.30;;;8.90;99.90;;;;;;4996130;28;20956;-86
2021/11/05 11:33:08;;;;;;;0.30;0.27;;;8.90;99.90;;;;;;4995601;28;20976;-86
2021/11/05 11:35:38;;;;;;;0.50;0.30;;;8.90;99.90;;;;;;4994031;28;20488;-85
2021/11/05 11:38:06;;;;;;;0.70;0.40;;;8.90;99.90;;;;;;4995413;28;20480;-84
2021/11/05 11:40:34;;;;;;;0.30;0.30;;;9.00;99.90;;;;;;4995210;28;20459;-86
2021/11/05 11:43:01;;;;;;;0.43;0.43;;;9.00;99.90;;;;;;4995361;28;20471;-85
2021/11/05 11:45:28;;;;;;;0.50;0.33;;;9.10;99.90;;;;;;4993299;28;20445;-84
2021/11/05 11:47:57;;;;;;;0.30;0.30;;;9.30;99.90;;;;;;4976360;28;20945;-84
2021/11/05 11:50:26;;;;;;;0.30;0.30;;;9.40;99.90;;;;;;4976181;28;21004;-84
2021/11/05 11:53:04;;;;;;;0.40;0.30;;;9.60;99.90;;;;;;4976369;28;20477;-84
2021/11/05 11:55:35;;;;;;;1.17;0.53;;;9.70;99.90;;;;;;4991307;28;20487;-84
2021/11/05 11:58:11;;;;;;;0.30;0.20;;;10.00;99.90;;;;;;4976126;28;20801;-84
2021/11/05 12:00:40;;;;;;;0.40;0.30;;;10.20;99.90;;;;;;4976475;28;20540;-85
2021/11/05 12:03:09;;;;;;;0.37;0.37;;;10.20;99.90;;;;;;4989235;28;20466;-85
2021/11/05 12:05:39;;;;;;;0.40;0.40;;;10.30;99.90;;;;;;4984317;28;20445;-85
2021/11/05 12:08:21;;;;;;;1.00;0.30;;;10.50;99.90;;;;;;4984209;28;20446;-84
2021/11/05 12:10:52;;;;;;;0.30;0.30;;;10.50;99.90;;;;;;4999787;28;20785;-84
2021/11/05 12:13:45;;;;;;;0.40;0.30;;;10.50;99.90;;;;;;4995958;28;20472;-84
2021/11/05 12:16:26;;;;;;;0.40;0.30;;;10.50;99.90;;;;;;4968457;28;20497;-85
2021/11/05 12:19:18;;;;;;;0.50;0.50;;;10.50;99.90;;;;;;4984283;28;20452;-85
2021/11/05 12:21:48;;;;;;;0.30;0.30;;;10.40;99.90;;;;;;4985410;28;20445;-85
2021/11/05 12:24:26;;;;;;;1.23;0.70;;;10.30;99.90;;;;;;4977917;28;20465;-85
2021/11/05 12:27:00;;;;;;;0.77;0.40;;;10.30;99.90;;;;;;4987282;28;20433;-84
2021/11/05 12:29:50;;;;;;;0.40;0.40;;;10.30;99.90;;;;;;4984627;28;20456;-85
2021/11/05 12:32:31;;;;;;;1.43;0.40;;;10.30;99.90;;;;;;4986790;28;20950;-84
2021/11/05 12:35:34;;;;;;;0.60;0.40;;;10.40;99.90;;;;;;4980998;28;20504;-84
2021/11/05 12:38:10;;;;;;;0.30;0.30;;;10.40;99.90;;;;;;4981337;28;20504;-84
2021/11/05 12:40:45;;;;;;;0.40;0.33;;;10.50;99.90;;;;;;4987339;28;20520;-85
2021/11/05 12:43:38;;;;;;;0.97;0.40;;;10.50;99.90;;;;;;4977509;28;20552;-83
2021/11/05 12:46:09;;;;;;;0.50;0.30;;;10.60;99.90;;;;;;4983736;28;20433;-85
2021/11/05 12:49:03;;;;;;;0.77;0.70;;;10.50;99.90;;;;;;4994201;28;20433;-84
2021/11/05 12:51:34;;;;;;;0.33;0.33;;;10.50;99.90;;;;;;4949297;28;20940;-84
2021/11/05 12:54:08;;;;;;;0.73;0.50;;;10.50;99.90;;;;;;4994756;28;20468;-84
2021/11/05 12:56:36;;;;;;;0.60;0.40;;;10.50;99.90;;;;;;4994504;28;20433;-85
2021/11/05 12:59:11;;;;;;;0.40;0.40;;;10.40;99.90;;;;;;4994762;28;20525;-84
2021/11/05 13:01:38;;;;;;;1.53;0.40;;;10.40;99.90;;;;;;4994653;28;20495;-85